Time;durP1;ratioP1;P1;durP2;ratioP2;P2;SDS_P1;SDS_P2;PMS_P1;PMS_P2;Temp;Humidity;BMP_temperature;BMP_pressure;BME280_temperature;BME280_humidity;BME280_pressure;Samples;Min_cycle;Max_cycle;Signal;HPM_P1;HPM_P2
2022/12/02 00:00:35;;;;;;;6.95;2.35;;;;;;;-1.22;58.81;101253.68;1817841;79;21176;-80
2022/12/02 00:03:43;;;;;;;7.92;1.80;;;;;;;-1.15;59.17;101257.80;1850829;77;21162;-81
2022/12/02 00:06:50;;;;;;;3.52;1.60;;;;;;;-1.27;59.20;101266.03;1815884;79;21172;-81
2022/12/02 00:09:55;;;;;;;15.15;1.87;;;;;;;-1.31;59.57;101259.94;1849048;77;21168;-81
2022/12/02 00:13:03;;;;;;;7.15;1.70;;;;;;;-1.31;59.65;101254.56;1817418;79;21152;-81
2022/12/02 00:16:11;;;;;;;3.90;1.98;;;;;;;-1.36;60.03;101255.75;1849981;77;21184;-80
2022/12/02 00:19:17;;;;;;;8.95;2.12;;;;;;;-1.42;60.10;101251.53;1818388;79;21141;-80
2022/12/02 00:22:23;;;;;;;4.67;1.72;;;;;;;-1.45;60.51;101257.08;1851752;77;21145;-81
2022/12/02 00:25:28;;;;;;;2.85;1.45;;;;;;;-1.46;60.92;101255.79;1817796;79;21219;-81
2022/12/02 00:28:35;;;;;;;6.22;1.82;;;;;;;-1.49;60.90;101255.96;1850798;77;21161;-80
2022/12/02 00:31:41;;;;;;;4.22;2.05;;;;;;;-1.37;61.34;101246.80;1817411;79;21133;-80
2022/12/02 00:34:48;;;;;;;6.83;2.17;;;;;;;-1.42;60.96;101260.93;1849816;77;21757;-82
2022/12/02 00:37:53;;;;;;;7.00;2.08;;;;;;;-1.53;61.61;101254.37;1817496;79;21153;-82
2022/12/02 00:41:00;;;;;;;4.05;2.00;;;;;;;-1.56;61.80;101255.38;1849701;77;21762;-80
2022/12/02 00:47:29;;;;;;;8.78;2.45;;;;;;;-1.62;62.05;101245.83;1820545;79;21161;-81
2022/12/02 00:50:35;;;;;;;12.90;3.05;;;;;;;-1.54;61.63;101249.48;1819895;79;21191;-80
2022/12/02 00:53:34;;;;;;;5.53;2.70;;;;;;;-1.61;61.90;101253.40;1820830;79;21149;-81
2022/12/02 00:56:40;;;;;;;7.53;2.22;;;;;;;-1.65;62.19;101247.31;1820678;79;21713;-82
2022/12/02 00:59:46;;;;;;;5.83;2.60;;;;;;;-1.49;62.01;101252.80;1820276;77;21697;-81
2022/12/02 01:02:52;;;;;;;6.20;2.20;;;;;;;-1.70;62.39;101249.83;1820648;79;21732;-80
2022/12/02 01:05:58;;;;;;;4.45;1.95;;;;;;;-1.68;62.58;101243.94;1819547;79;21175;-80
2022/12/02 01:09:04;;;;;;;9.78;3.10;;;;;;;-1.92;63.39;101232.59;1820823;79;21184;-80
2022/12/02 01:12:10;;;;;;;6.20;1.82;;;;;;;-1.76;63.51;101228.67;1820755;79;21160;-80
2022/12/02 01:15:17;;;;;;;2.58;1.85;;;;;;;-1.89;63.84;101235.11;1820110;77;21767;-79
2022/12/02 01:18:24;;;;;;;7.58;2.02;;;;;;;-1.92;63.97;101230.77;1820629;79;21129;-81
2022/12/02 01:21:29;;;;;;;7.42;2.30;;;;;;;-1.88;64.15;101227.48;1819248;79;21795;-81
2022/12/02 01:24:35;;;;;;;7.62;2.10;;;;;;;-1.90;64.34;101229.35;1820285;79;21160;-80
2022/12/02 01:27:41;;;;;;;7.20;2.20;;;;;;;-1.77;64.52;101233.66;1820734;79;21191;-80
2022/12/02 01:30:47;;;;;;;5.65;2.10;;;;;;;-1.54;63.65;101237.41;1820175;79;21167;-80
2022/12/02 01:33:54;;;;;;;7.47;2.30;;;;;;;-1.64;64.02;101222.72;1820813;79;21200;-81
2022/12/02 01:36:59;;;;;;;3.75;2.00;;;;;;;-1.62;64.46;101224.84;1820729;79;21196;-81
2022/12/02 01:40:05;;;;;;;15.32;2.45;;;;;;;-1.51;64.19;101231.00;1820175;79;21580;-81
2022/12/02 01:43:11;;;;;;;8.83;2.22;;;;;;;-0.91;62.70;101208.19;1820628;79;21148;-81
2022/12/02 01:46:16;;;;;;;10.70;2.25;;;;;;;1.10;56.61;101211.55;1829153;77;21477;-79
2022/12/02 01:49:22;;;;;;;4.03;2.12;;;;;;;1.70;53.62;101214.95;1817543;79;21156;-80
2022/12/02 01:52:28;;;;;;;12.58;2.10;;;;;;;2.07;52.25;101205.84;1850724;77;21152;-81
2022/12/02 01:55:34;;;;;;;7.20;2.35;;;;;;;2.20;51.53;101212.14;1792702;79;21187;-80
2022/12/02 01:58:40;;;;;;;5.35;2.20;;;;;;;2.65;50.62;101214.11;1850964;77;21128;-80
2022/12/02 02:01:45;;;;;;;5.12;2.00;;;;;;;3.31;49.04;101210.92;1816722;79;21215;-81
2022/12/02 02:04:51;;;;;;;8.58;2.30;;;;;;;3.26;48.85;101205.84;1849109;77;21204;-81
2022/12/02 02:08:00;;;;;;;12.45;2.20;;;;;;;3.34;48.58;101197.20;1817521;79;21141;-80
2022/12/02 02:11:06;;;;;;;10.63;2.40;;;;;;;3.71;48.13;101208.08;1850878;77;21188;-80
2022/12/02 02:14:12;;;;;;;6.22;2.55;;;;;;;3.98;47.32;101201.15;1793738;79;21149;-81
2022/12/02 02:17:19;;;;;;;6.65;1.95;;;;;;;0.45;51.92;101214.52;1849681;77;21242;-81
2022/12/02 02:20:28;;;;;;;9.40;3.22;;;;;;;-1.26;62.04;101215.89;1816811;79;21192;-80
2022/12/02 02:23:35;;;;;;;5.83;2.33;;;;;;;-1.26;63.72;101214.55;1851008;77;21128;-80
2022/12/02 02:26:41;;;;;;;13.65;2.37;;;;;;;0.40;60.44;101207.19;1816410;79;21161;-82
2022/12/02 02:29:47;;;;;;;11.48;2.77;;;;;;;0.00;59.98;101206.80;1850645;77;21188;-81
2022/12/02 02:32:55;;;;;;;11.45;3.33;;;;;;;1.84;54.07;101209.16;1817514;79;21185;-81
2022/12/02 02:35:55;;;;;;;6.33;3.15;;;;;;;2.35;51.99;101205.34;1850345;77;21223;-81
2022/12/02 02:39:02;;;;;;;9.30;2.92;;;;;;;2.34;51.25;101209.87;1817679;79;21152;-80
2022/12/02 02:42:08;;;;;;;8.75;2.98;;;;;;;2.58;50.88;101201.97;1850695;77;21156;-80
2022/12/02 02:45:15;;;;;;;7.95;2.85;;;;;;;2.66;50.47;101201.47;1816911;79;21203;-79
2022/12/02 02:48:23;;;;;;;11.33;3.62;;;;;;;2.94;49.54;101208.55;1852467;77;21807;-80
2022/12/02 02:51:29;;;;;;;12.50;3.10;;;;;;;3.05;49.42;101204.13;1821949;78;21215;-80
2022/12/02 02:54:36;;;;;;;8.78;3.90;;;;;;;2.99;49.16;101205.91;1856958;77;21215;-80
2022/12/02 02:57:42;;;;;;;10.50;3.20;;;;;;;2.97;49.04;101204.30;1823560;78;21771;-80
2022/12/02 03:00:51;;;;;;;8.00;3.22;;;;;;;2.85;49.24;101195.67;1855924;77;21819;-79
2022/12/02 03:03:59;;;;;;;14.75;3.67;;;;;;;2.45;50.08;101206.48;1823701;78;21148;-80
2022/12/02 03:07:05;;;;;;;13.35;4.00;;;;;;;2.94;49.28;101216.17;1857204;77;21207;-81
2022/12/02 03:10:11;;;;;;;4.90;2.90;;;;;;;3.04;49.00;101208.30;1823743;78;21741;-80
2022/12/02 03:13:17;;;;;;;8.23;3.52;;;;;;;3.07;48.89;101217.06;1857258;77;21163;-81
2022/12/02 03:16:23;;;;;;;9.10;4.50;;;;;;;3.18;48.34;101210.91;1799130;78;21176;-79
2022/12/02 03:19:29;;;;;;;6.08;3.27;;;;;;;3.31;48.11;101209.56;1833749;77;21211;-81
2022/12/02 03:22:34;;;;;;;9.23;3.37;;;;;;;2.65;49.70;101211.41;1823695;78;21168;-81
2022/12/02 03:25:39;;;;;;;8.60;3.45;;;;;;;-1.48;58.09;101208.05;1857168;77;21202;-80
2022/12/02 03:28:46;;;;;;;8.70;3.45;;;;;;;0.58;57.72;101208.80;1823452;78;21153;-82
2022/12/02 03:31:45;;;;;;;8.93;3.60;;;;;;;1.85;53.02;101215.80;1856887;77;21159;-80
2022/12/02 03:34:38;;;;;;;11.28;3.58;;;;;;;2.08;51.85;101214.80;1797743;78;21191;-82
2022/12/02 03:37:43;;;;;;;8.25;3.30;;;;;;;2.18;51.34;101213.23;1855797;77;21776;-80
2022/12/02 03:40:48;;;;;;;7.92;3.42;;;;;;;2.18;51.34;101212.73;1822543;78;21190;-80
2022/12/02 03:43:53;;;;;;;11.35;3.10;;;;;;;2.56;50.64;101209.33;1857039;77;21169;-80
2022/12/02 03:46:53;;;;;;;13.60;4.75;;;;;;;2.76;50.09;101213.37;1823261;78;21243;-81
2022/12/02 03:49:59;;;;;;;8.63;3.42;;;;;;;-0.18;53.43;101218.59;1853825;77;21156;-80
2022/12/02 03:53:04;;;;;;;5.83;3.12;;;;;;;-2.34;65.23;101220.29;1823520;78;21235;-81
2022/12/02 03:56:12;;;;;;;6.53;3.27;;;;;;;-2.51;67.04;101214.36;1855697;77;21744;-80
2022/12/02 03:59:19;;;;;;;6.60;3.17;;;;;;;0.01;61.23;101206.33;1823677;78;21164;-81
2022/12/02 04:02:23;;;;;;;8.33;3.25;;;;;;;0.98;56.39;101207.27;1833698;77;21176;-80
2022/12/02 04:05:27;;;;;;;6.25;3.27;;;;;;;1.22;55.03;101210.77;1823762;78;21764;-81
2022/12/02 04:08:34;;;;;;;7.67;3.35;;;;;;;1.35;54.11;101210.41;1857311;77;21172;-81
2022/12/02 04:11:39;;;;;;;7.00;3.42;;;;;;;1.50;53.72;101210.78;1823884;78;21140;-81
2022/12/02 04:14:45;;;;;;;9.58;3.42;;;;;;;1.19;54.27;101206.94;1857239;77;21765;-81
2022/12/02 04:17:51;;;;;;;13.43;3.52;;;;;;;1.46;53.64;101205.72;1823393;78;21843;-81
2022/12/02 04:20:56;;;;;;;8.30;3.87;;;;;;;1.56;53.16;101210.05;1857201;77;21178;-80
2022/12/02 04:24:01;;;;;;;9.55;4.22;;;;;;;1.92;52.45;101210.86;1823447;78;21688;-80
2022/12/02 04:27:07;;;;;;;7.75;3.87;;;;;;;1.97;52.03;101201.98;1856599;77;21780;-81
2022/12/02 04:30:13;;;;;;;5.87;3.30;;;;;;;2.32;51.10;101201.03;1823050;78;21187;-79
2022/12/02 04:33:19;;;;;;;7.00;3.77;;;;;;;2.34;51.06;101213.06;1857221;77;21156;-81
2022/12/02 04:36:25;;;;;;;9.08;3.75;;;;;;;2.25;51.17;101205.09;1823700;78;21187;-80
2022/12/02 04:39:31;;;;;;;9.43;3.60;;;;;;;2.72;50.15;101208.66;1857150;77;21705;-80
2022/12/02 04:42:36;;;;;;;6.58;3.30;;;;;;;2.52;50.29;101210.50;1823501;78;21593;-81
2022/12/02 04:45:42;;;;;;;8.73;3.55;;;;;;;2.57;50.10;101216.45;1856235;77;21164;-79
2022/12/02 04:48:49;;;;;;;5.80;3.83;;;;;;;2.57;50.07;101220.50;1821248;78;21184;-78
2022/12/02 04:51:55;;;;;;;5.45;3.40;;;;;;;2.48;50.28;101215.72;1824956;78;21744;-82
2022/12/02 04:55:01;;;;;;;8.98;3.67;;;;;;;2.99;49.52;101217.20;1817797;79;21180;-81
2022/12/02 04:58:06;;;;;;;8.08;3.87;;;;;;;2.95;49.28;101216.55;1851186;77;21616;-83
2022/12/02 05:01:11;;;;;;;7.80;3.85;;;;;;;3.01;49.35;101220.20;1817626;79;21788;-81
2022/12/02 05:04:16;;;;;;;7.67;3.85;;;;;;;3.14;48.87;101215.28;1850938;77;21173;-83
2022/12/02 05:07:22;;;;;;;8.28;3.47;;;;;;;3.05;49.02;101222.19;1817516;79;21164;-81
2022/12/02 05:10:28;;;;;;;8.48;3.37;;;;;;;3.01;49.00;101222.91;1825122;77;21752;-80
2022/12/02 05:13:34;;;;;;;7.12;3.75;;;;;;;3.10;48.82;101225.92;1817562;79;21195;-81
2022/12/02 05:16:39;;;;;;;12.25;3.55;;;;;;;3.23;48.48;101218.70;1850879;77;21149;-83
2022/12/02 05:19:46;;;;;;;10.10;3.35;;;;;;;3.24;48.56;101218.58;1816624;79;21161;-81
2022/12/02 05:22:52;;;;;;;5.78;3.20;;;;;;;3.51;48.16;101225.73;1850780;77;21187;-81
2022/12/02 05:25:58;;;;;;;9.08;3.87;;;;;;;3.28;48.29;101221.94;1816482;79;21176;-81
2022/12/02 05:29:05;;;;;;;5.90;3.40;;;;;;;3.56;48.13;101212.75;1849768;77;21192;-79
2022/12/02 05:32:11;;;;;;;8.40;3.40;;;;;;;3.44;47.94;101213.14;1817559;79;21744;-82
2022/12/02 05:35:18;;;;;;;11.20;4.30;;;;;;;3.59;47.86;101217.45;1849727;77;21161;-80
2022/12/02 05:38:25;;;;;;;7.12;3.77;;;;;;;3.70;47.67;101220.73;1817068;79;21716;-80
2022/12/02 05:41:32;;;;;;;8.70;4.03;;;;;;;3.75;47.51;101214.51;1850698;77;21674;-82
2022/12/02 05:44:41;;;;;;;5.58;3.12;;;;;;;3.63;47.80;101211.34;1817456;79;21187;-81
2022/12/02 05:47:47;;;;;;;10.18;4.00;;;;;;;3.45;47.84;101223.47;1850674;77;21207;-79
2022/12/02 05:50:52;;;;;;;8.35;3.72;;;;;;;3.67;47.47;101216.92;1796836;78;21196;-80
2022/12/02 05:53:59;;;;;;;10.40;4.10;;;;;;;3.80;47.54;101218.23;1791240;80;21152;-79
2022/12/02 05:57:07;;;;;;;5.95;3.40;;;;;;;3.74;47.53;101219.55;1791328;80;21768;-79
2022/12/02 06:00:21;;;;;;;8.85;3.98;;;;;;;3.99;47.22;101214.56;1785154;80;21760;-80
2022/12/02 06:03:28;;;;;;;16.32;3.60;;;;;;;3.99;47.11;101215.05;1798290;80;21162;-81
2022/12/02 06:06:37;;;;;;;7.10;2.67;;;;;;;4.26;46.55;101214.39;1796901;80;21169;-82
2022/12/02 06:09:43;;;;;;;9.55;3.52;;;;;;;4.50;46.19;101220.30;1792776;80;21163;-81
2022/12/02 06:12:49;;;;;;;6.67;3.33;;;;;;;4.73;45.59;101218.08;1793513;80;21154;-80
2022/12/02 06:15:54;;;;;;;8.83;3.90;;;;;;;4.85;45.14;101216.30;1752273;80;21229;-82
2022/12/02 06:18:59;;;;;;;8.33;3.87;;;;;;;4.82;45.25;101218.73;1813144;77;21191;-79
2022/12/02 06:22:06;;;;;;;9.08;4.22;;;;;;;5.08;44.86;101218.09;1789594;79;21173;-80
2022/12/02 06:25:15;;;;;;;13.60;3.60;;;;;;;5.33;44.03;101218.39;1771476;80;21177;-82
2022/12/02 06:28:43;;;;;;;10.98;3.67;;;;;;;5.30;44.23;101220.47;1796181;78;21678;-83
2022/12/02 06:31:50;;;;;;;8.53;3.20;;;;;;;4.99;44.65;101216.59;1783926;79;21181;-80
2022/12/02 06:34:58;;;;;;;12.20;3.87;;;;;;;5.40;43.94;101218.77;1791806;79;21167;-79
2022/12/02 06:38:05;;;;;;;8.65;3.67;;;;;;;5.53;43.69;101210.52;1798066;79;21211;-79
2022/12/02 06:41:24;;;;;;;10.50;3.58;;;;;;;6.02;42.72;101210.66;1820081;79;21717;-80
2022/12/02 06:48:13;;;;;;;6.40;3.37;;;;;;;6.05;42.79;101210.42;1808567;79;21133;-79
2022/12/02 06:51:26;;;;;;;12.45;3.95;;;;;;;5.85;42.71;101214.23;1783772;79;21197;-79
2022/12/02 06:54:36;;;;;;;10.88;4.03;;;;;;;5.74;42.88;101216.08;1808265;77;30427;-81
2022/12/02 06:57:41;;;;;;;13.70;4.00;;;;;;;6.16;42.14;101203.61;1800963;78;21147;-81
2022/12/02 07:00:46;;;;;;;12.55;3.58;;;;;;;6.18;42.01;101207.08;1804532;78;21228;-82
2022/12/02 07:04:10;;;;;;;26.82;10.43;;;;;;;6.01;42.66;101206.23;1800392;79;21156;-80
2022/12/02 07:07:28;;;;;;;26.02;11.73;;;;;;;5.86;42.50;101201.52;1800861;78;21196;-79
2022/12/02 07:10:33;;;;;;;6.80;4.72;;;;;;;6.07;42.83;101205.72;1792823;78;21192;-80
2022/12/02 07:13:39;;;;;;;6.17;3.87;;;;;;;6.32;41.84;101217.67;1791886;77;21184;-82
2022/12/02 07:16:44;;;;;;;7.42;3.37;;;;;;;5.95;42.82;101215.75;1794894;78;21749;-82
2022/12/02 07:19:53;;;;;;;12.30;3.98;;;;;;;6.53;42.16;101209.57;1797223;78;21188;-81
2022/12/02 07:23:21;;;;;;;5.90;2.70;;;;;;;6.30;42.17;101216.05;1790968;78;21164;-81
2022/12/02 07:26:28;;;;;;;8.60;4.00;;;;;;;6.31;42.00;101209.66;1764317;79;21188;-83
2022/12/02 07:29:36;;;;;;;15.35;5.50;;;;;;;6.69;41.96;101210.53;1796977;78;21549;-81
2022/12/02 07:32:43;;;;;;;8.20;3.43;;;;;;;7.05;41.14;101221.97;1808980;78;21127;-83
2022/12/02 07:35:48;;;;;;;14.73;3.37;;;;;;;7.23;41.23;101221.75;1799383;77;21355;-81
2022/12/02 07:38:54;;;;;;;4.72;3.05;;;;;;;7.23;40.98;101195.90;1801852;78;21791;-81
2022/12/02 07:42:03;;;;;;;5.75;2.75;;;;;;;6.97;41.60;101214.98;1804596;78;21160;-81
2022/12/02 07:45:07;;;;;;;5.33;2.72;;;;;;;7.37;41.08;101205.09;1804986;77;21164;-81
2022/12/02 07:48:06;;;;;;;9.85;3.60;;;;;;;7.41;41.16;101202.97;1794592;77;21448;-81
2022/12/02 07:51:00;;;;;;;15.75;4.92;;;;;;;7.92;40.25;101211.61;1794814;77;21197;-81
2022/12/02 07:54:05;;;;;;;11.35;3.55;;;;;;;7.57;40.47;101212.00;1744000;79;48042;-81
2022/12/02 07:57:10;;;;;;;5.20;3.00;;;;;;;7.43;40.79;101230.43;1786782;78;21121;-81
2022/12/02 08:00:17;;;;;;;18.70;5.85;;;;;;;7.77;40.82;101214.34;1774207;78;21151;-81
2022/12/02 08:03:22;;;;;;;7.95;4.15;;;;;;;7.81;40.17;101218.49;1789960;78;21184;-81
2022/12/02 08:06:27;;;;;;;9.40;4.60;;;;;;;7.83;40.42;101209.70;1777475;78;21732;-81
2022/12/02 08:09:35;;;;;;;7.50;3.52;;;;;;;8.24;40.13;101201.89;1769514;78;21228;-82
2022/12/02 08:12:41;;;;;;;5.97;3.67;;;;;;;7.98;40.25;101217.00;1787344;78;21779;-81
2022/12/02 08:15:47;;;;;;;7.83;3.40;;;;;;;8.09;40.35;101197.34;1780378;78;21165;-80
2022/12/02 08:18:52;;;;;;;13.32;4.17;;;;;;;8.34;39.69;101204.14;1778229;78;21168;-79
2022/12/02 08:21:58;;;;;;;13.28;4.97;;;;;;;6.22;44.28;101213.99;1777532;78;21208;-79
2022/12/02 08:25:04;;;;;;;8.65;4.75;;;;;;;7.02;42.91;101213.59;1779373;78;21198;-80
2022/12/02 08:28:10;;;;;;;8.73;3.92;;;;;;;7.76;41.72;101201.20;1775404;78;21192;-78
2022/12/02 08:31:09;;;;;;;11.70;4.25;;;;;;;7.27;41.90;101219.14;1786008;78;21172;-79
2022/12/02 08:34:03;;;;;;;9.20;4.62;;;;;;;5.19;42.47;101192.84;1786308;78;21792;-79
2022/12/02 08:37:11;;;;;;;13.40;6.25;;;;;;;0.98;55.76;101206.41;1780834;78;21183;-83
2022/12/02 08:40:17;;;;;;;12.88;4.78;;;;;;;0.81;58.84;101207.92;1789321;78;21156;-83
2022/12/02 08:43:22;;;;;;;13.08;4.33;;;;;;;0.86;59.83;101208.52;1780530;78;21772;-80
2022/12/02 08:46:28;;;;;;;10.40;5.15;;;;;;;0.65;61.53;101195.35;1766761;79;21764;-80
2022/12/02 08:49:32;;;;;;;11.00;3.95;;;;;;;1.02;59.24;101188.61;1779712;78;21203;-80
2022/12/02 08:52:38;;;;;;;13.88;4.83;;;;;;;1.69;58.06;101201.05;1784658;78;21695;-80
2022/12/02 08:55:43;;;;;;;10.13;6.08;;;;;;;2.51;55.52;101193.92;1767899;78;460631;-81
2022/12/02 08:58:50;;;;;;;6.37;4.75;;;;;;;3.42;53.23;101181.75;1773997;78;21221;-81
2022/12/02 09:01:57;;;;;;;15.75;4.67;;;;;;;4.07;51.72;101186.94;1784451;78;21152;-79
2022/12/02 09:05:03;;;;;;;8.25;3.27;;;;;;;4.01;50.53;101165.25;1788749;78;21167;-79
2022/12/02 09:08:09;;;;;;;9.35;5.03;;;;;;;4.34;50.44;101167.28;1784154;78;21306;-80
2022/12/02 09:11:15;;;;;;;10.43;5.95;;;;;;;4.82;48.93;101174.01;1784273;78;21282;-79
2022/12/02 09:14:20;;;;;;;18.82;7.95;;;;;;;4.74;48.59;101174.22;1779646;79;21160;-81
2022/12/02 09:17:25;;;;;;;11.90;6.00;;;;;;;4.93;48.54;101166.88;1770877;79;21157;-79
2022/12/02 09:20:32;;;;;;;12.25;5.60;;;;;;;4.80;48.56;101149.37;1775458;80;21164;-81
2022/12/02 09:23:37;;;;;;;11.25;4.45;;;;;;;5.16;47.83;101153.75;1774381;79;21150;-80
2022/12/02 09:26:45;;;;;;;13.53;8.45;;;;;;;5.05;47.79;101149.17;1783133;79;21168;-80
2022/12/02 09:29:50;;;;;;;9.00;5.72;;;;;;;5.32;47.05;101146.63;1773210;79;21162;-82
2022/12/02 09:32:57;;;;;;;9.95;5.75;;;;;;;5.67;47.00;101144.28;1779325;80;21150;-80
2022/12/02 09:36:02;;;;;;;11.10;5.92;;;;;;;5.84;46.59;101148.71;1776369;79;21229;-82
2022/12/02 09:39:08;;;;;;;8.83;3.75;;;;;;;5.82;46.70;101145.73;1776275;78;21728;-81
2022/12/02 09:42:15;;;;;;;14.10;5.33;;;;;;;5.86;46.69;101144.50;1773380;78;21667;-82
2022/12/02 09:45:21;;;;;;;7.95;4.90;;;;;;;5.81;46.08;101144.88;1824470;77;21183;-82
2022/12/02 09:48:26;;;;;;;12.13;3.17;;;;;;;6.30;45.50;101138.62;1786343;78;21793;-82
2022/12/02 09:51:32;;;;;;;11.08;5.42;;;;;;;6.16;45.52;101142.48;1789343;78;21639;-80
2022/12/02 09:54:37;;;;;;;8.50;4.85;;;;;;;6.58;44.62;101146.66;1775527;78;21176;-80
2022/12/02 09:57:42;;;;;;;10.25;3.55;;;;;;;6.10;45.42;101141.15;1775390;78;21190;-80
2022/12/02 10:00:48;;;;;;;9.18;4.85;;;;;;;6.19;45.59;101145.45;1794108;77;21188;-80
2022/12/02 10:03:55;;;;;;;8.98;4.08;;;;;;;6.08;46.09;101135.49;1770823;78;21802;-80
2022/12/02 10:07:01;;;;;;;11.50;4.47;;;;;;;6.38;45.78;101132.91;1775715;79;21149;-80
2022/12/02 10:10:06;;;;;;;15.45;7.30;;;;;;;6.63;45.20;101134.91;1777776;78;21156;-82
2022/12/02 10:13:12;;;;;;;13.15;3.35;;;;;;;6.96;44.35;101124.84;1779668;78;21175;-80
2022/12/02 10:16:20;;;;;;;10.90;4.90;;;;;;;6.87;44.43;101138.27;1784612;78;21202;-80
2022/12/02 10:19:26;;;;;;;13.32;5.78;;;;;;;7.36;43.37;101129.88;1774361;79;21753;-80
2022/12/02 10:22:33;;;;;;;12.65;5.35;;;;;;;7.15;43.42;101130.39;1773362;78;21246;-82
2022/12/02 10:25:40;;;;;;;8.85;5.08;;;;;;;7.61;43.32;101123.11;1777359;78;21179;-81
2022/12/02 10:28:46;;;;;;;4.95;2.47;;;;;;;7.32;43.52;101128.92;1790397;78;21164;-82
2022/12/02 10:32:07;;;;;;;8.35;3.98;;;;;;;7.63;43.14;101117.03;1777318;78;21160;-82
2022/12/02 10:35:16;;;;;;;12.75;3.85;;;;;;;7.63;43.12;101122.48;1781707;78;21605;-81
2022/12/02 10:38:44;;;;;;;11.85;3.30;;;;;;;7.77;43.32;101123.97;1785490;79;21289;-82
2022/12/02 10:41:45;;;;;;;10.65;4.00;;;;;;;7.92;42.57;101117.12;1773648;79;21178;-80
2022/12/02 10:44:44;;;;;;;6.87;3.15;;;;;;;7.90;43.21;101121.86;1776849;78;21241;-79
2022/12/02 10:47:50;;;;;;;7.12;3.27;;;;;;;8.53;42.50;101115.23;1782711;80;21785;-81
2022/12/02 10:50:55;;;;;;;11.35;3.80;;;;;;;8.64;42.52;101115.93;1764283;81;21724;-83
2022/12/02 10:54:01;;;;;;;6.30;2.60;;;;;;;8.96;41.78;101109.30;1782844;78;21188;-80
2022/12/02 10:57:09;;;;;;;8.35;3.60;;;;;;;8.73;42.11;101113.34;1776258;78;21213;-79
2022/12/02 11:00:30;;;;;;;7.65;3.72;;;;;;;9.11;41.59;101108.33;1780131;78;21792;-82
2022/12/02 11:03:36;;;;;;;7.45;3.83;;;;;;;9.28;41.62;101102.11;1793508;78;21164;-81
2022/12/02 11:06:41;;;;;;;8.15;2.92;;;;;;;9.25;41.89;101114.68;1784533;78;21184;-81
2022/12/02 11:09:54;;;;;;;9.88;3.05;;;;;;;9.12;42.33;101105.44;1784381;79;21796;-82
2022/12/02 11:13:04;;;;;;;15.50;2.85;;;;;;;9.53;41.90;101109.27;1771823;79;21203;-79
2022/12/02 11:16:37;;;;;;;4.92;2.50;;;;;;;9.53;41.96;101109.27;1810872;79;21538;-80
2022/12/02 11:19:48;;;;;;;11.03;3.83;;;;;;;9.72;41.90;101109.17;1783626;80;21790;-80
2022/12/02 11:22:57;;;;;;;8.30;2.35;;;;;;;9.90;42.54;101107.86;1759615;81;21160;-81
2022/12/02 11:26:07;;;;;;;12.90;3.45;;;;;;;10.11;42.48;101106.21;1768044;81;21164;-83
2022/12/02 11:29:21;;;;;;;4.53;2.30;;;;;;;10.09;42.33;101108.25;1768279;79;21157;-82
2022/12/02 11:32:33;;;;;;;6.50;2.37;;;;;;;10.11;42.11;101102.97;1768481;79;21220;-80
2022/12/02 11:36:21;;;;;;;6.15;2.42;;;;;;;10.44;41.76;101100.61;1780200;79;21724;-82
2022/12/02 11:39:46;;;;;;;10.08;2.77;;;;;;;10.37;41.92;101105.00;1800379;79;21768;-82
2022/12/02 11:42:52;;;;;;;5.28;2.50;;;;;;;10.64;41.57;101105.43;1770081;79;21158;-82
2022/12/02 11:46:04;;;;;;;6.47;2.47;;;;;;;10.80;41.12;101105.55;1777664;79;21751;-80
2022/12/02 11:49:09;;;;;;;5.05;2.60;;;;;;;10.66;40.91;101115.70;1768723;79;21218;-82
2022/12/02 11:52:30;;;;;;;8.18;2.80;;;;;;;10.69;40.85;101113.51;1799570;79;21215;-82
2022/12/02 11:55:43;;;;;;;;;;;;;;;10.92;40.53;101112.51;1802223;79;21246;-81
2022/12/02 11:58:48;;;;;;;5.12;2.00;;;;;;;11.03;40.58;101108.64;1790448;80;20613;-80
2022/12/02 12:01:55;;;;;;;6.20;2.45;;;;;;;3.42;57.60;101129.02;1736405;80;21164;-81
2022/12/02 12:05:10;;;;;;;6.20;2.20;;;;;;;2.75;63.38;101127.90;1783660;80;21240;-81
2022/12/02 12:08:15;;;;;;;9.00;2.60;;;;;;;2.72;65.36;101119.50;1770156;80;21203;-81
2022/12/02 12:11:41;;;;;;;5.78;2.98;;;;;;;2.78;66.00;101125.86;1787568;79;21182;-81
2022/12/02 12:15:10;;;;;;;8.05;2.98;;;;;;;2.74;66.28;101129.73;1784376;80;21802;-82
2022/12/02 12:18:14;;;;;;;9.25;2.35;;;;;;;2.65;66.60;101132.20;1791182;79;21245;-79
2022/12/02 12:21:44;;;;;;;5.53;3.25;;;;;;;2.73;66.34;101138.82;1788544;80;21228;-81
2022/12/02 12:24:49;;;;;;;5.42;2.45;;;;;;;2.86;66.57;101137.95;1792254;79;21176;-79
2022/12/02 12:27:54;;;;;;;5.50;2.52;;;;;;;2.83;66.53;101128.23;1792341;80;21157;-82
2022/12/02 12:30:59;;;;;;;16.95;7.67;;;;;;;2.73;67.00;101130.72;1797411;79;21192;-79
2022/12/02 12:34:05;;;;;;;14.03;4.70;;;;;;;2.68;67.06;101127.47;1791599;79;22172;-81
2022/12/02 12:37:10;;;;;;;14.65;6.30;;;;;;;2.88;66.25;101133.33;1785925;79;21172;-79
2022/12/02 12:40:18;;;;;;;27.85;8.83;;;;;;;3.00;65.78;101136.50;1788358;79;21217;-80
2022/12/02 12:43:23;;;;;;;132.80;58.50;;;;;;;2.98;65.51;101135.75;1811179;79;21828;-80
2022/12/02 12:46:28;;;;;;;20.02;8.75;;;;;;;2.91;65.41;101144.76;1796919;79;21231;-82
2022/12/02 12:49:35;;;;;;;25.70;6.92;;;;;;;4.44;62.51;101143.56;1757399;81;22055;-80
2022/12/02 12:52:41;;;;;;;9.63;3.40;;;;;;;5.43;57.14;101147.12;1753880;80;21168;-80
2022/12/02 12:55:46;;;;;;;7.80;2.60;;;;;;;5.63;55.69;101151.80;1757159;80;21725;-82
2022/12/02 12:58:52;;;;;;;16.10;3.47;;;;;;;3.66;61.59;101152.08;1756266;80;21207;-80
2022/12/02 13:01:58;;;;;;;7.47;3.50;;;;;;;3.27;63.07;101153.97;1774620;80;21187;-82
2022/12/02 13:05:05;;;;;;;11.78;3.45;;;;;;;4.28;61.68;101165.05;1790279;78;21175;-80
2022/12/02 13:08:11;;;;;;;8.80;4.08;;;;;;;5.51;56.98;101156.38;1805687;78;21141;-82
2022/12/02 13:11:18;;;;;;;16.95;4.85;;;;;;;4.71;59.19;101164.50;1820891;78;21180;-81
2022/12/02 13:14:23;;;;;;;12.70;3.92;;;;;;;5.05;58.56;101171.37;1759169;81;21578;-82
2022/12/02 13:17:29;;;;;;;18.23;5.58;;;;;;;5.73;56.33;101170.92;1789156;80;21631;-80
2022/12/02 13:20:35;;;;;;;13.22;5.15;;;;;;;5.83;55.57;101167.82;1789748;79;22214;-81
2022/12/02 13:23:41;;;;;;;15.70;5.40;;;;;;;6.24;54.60;101182.61;1771548;80;21146;-82
2022/12/02 13:26:47;;;;;;;12.53;6.90;;;;;;;6.48;53.58;101186.49;1765167;81;21217;-82
2022/12/02 13:29:53;;;;;;;29.42;3.35;;;;;;;6.60;53.02;101184.98;1765506;80;21177;-81
2022/12/02 13:32:59;;;;;;;10.68;2.72;;;;;;;6.71;52.48;101198.16;1785320;79;21146;-80
2022/12/02 13:36:05;;;;;;;4.83;2.47;;;;;;;6.74;52.23;101196.05;1784570;80;21201;-80
2022/12/02 13:39:10;;;;;;;6.30;2.58;;;;;;;6.92;51.90;101190.91;1788366;79;21171;-82
2022/12/02 13:42:15;;;;;;;8.50;2.42;;;;;;;6.88;51.76;101198.95;1805020;79;21193;-80
2022/12/02 13:45:19;;;;;;;17.87;13.53;;;;;;;6.96;51.40;101190.98;1814670;79;21773;-80
2022/12/02 13:48:25;;;;;;;7.72;2.72;;;;;;;7.10;50.81;101185.20;1780802;80;21147;-81
2022/12/02 13:51:32;;;;;;;14.40;7.10;;;;;;;7.24;50.50;101190.81;1756802;80;21153;-82
2022/12/02 13:54:38;;;;;;;16.73;12.60;;;;;;;7.17;50.49;101201.88;1777526;80;21227;-81
2022/12/02 13:57:44;;;;;;;17.65;15.30;;;;;;;7.39;50.10;101194.95;1822117;78;21171;-82
2022/12/02 14:00:49;;;;;;;15.65;10.58;;;;;;;7.26;50.20;101197.00;1812321;78;21695;-80
2022/12/02 14:03:55;;;;;;;16.05;8.20;;;;;;;7.60;48.61;101206.30;1789517;80;21752;-82
2022/12/02 14:07:01;;;;;;;10.50;6.83;;;;;;;7.87;48.05;101206.58;1788502;80;22295;-82
2022/12/02 14:10:05;;;;;;;10.45;6.58;;;;;;;8.06;47.46;101201.70;1789462;78;21215;-80
2022/12/02 14:13:11;;;;;;;16.48;7.45;;;;;;;8.03;47.27;101214.22;1757911;81;21802;-81
2022/12/02 14:16:18;;;;;;;12.80;6.60;;;;;;;8.19;46.73;101202.82;1788481;79;21187;-79
2022/12/02 14:19:24;;;;;;;15.08;8.10;;;;;;;8.18;46.67;101207.88;1758616;81;21163;-80
2022/12/02 14:22:30;;;;;;;18.15;8.48;;;;;;;8.12;46.91;101205.72;1789964;80;21199;-82
2022/12/02 14:25:35;;;;;;;18.87;10.45;;;;;;;8.94;45.20;101219.96;1779613;80;21201;-81
2022/12/02 14:28:40;;;;;;;13.70;6.80;;;;;;;8.90;44.83;101214.42;1756638;81;21217;-80
2022/12/02 14:31:38;;;;;;;13.00;8.18;;;;;;;9.25;44.53;101223.87;1756082;80;21674;-80
2022/12/02 14:34:45;;;;;;;22.07;14.75;;;;;;;8.96;44.65;101219.30;1757116;81;21196;-80
2022/12/02 14:37:51;;;;;;;16.50;8.83;;;;;;;9.67;43.75;101217.53;1757318;81;21152;-80
2022/12/02 14:40:56;;;;;;;15.72;7.05;;;;;;;9.84;43.32;101218.64;1770603;79;21223;-82